Time;durP1;ratioP1;P1;durP2;ratioP2;P2;SDS_P1;SDS_P2;PMS_P1;PMS_P2;Temp;Humidity;BMP_temperature;BMP_pressure;BME280_temperature;BME280_humidity;BME280_pressure;Samples;Min_cycle;Max_cycle;Signal;HPM_P1;HPM_P2
2024/01/14 00:01:17;;;;;;;0.50;0.50;;;;;;;0.42;98.61;98782.06;5108342;28;20027;-64
2024/01/14 00:03:43;;;;;;;0.50;0.50;;;;;;;0.43;98.77;98774.41;5108253;28;20024;-63
2024/01/14 00:06:08;;;;;;;1.63;0.77;;;;;;;0.36;98.86;98775.22;5108293;28;20031;-63
2024/01/14 00:08:33;;;;;;;0.50;0.50;;;;;;;0.34;99.04;98770.09;5106861;28;20020;-63
2024/01/14 00:10:59;;;;;;;1.48;1.25;;;;;;;0.36;98.87;98770.13;5108053;28;20026;-63
2024/01/14 00:13:24;;;;;;;0.40;0.40;;;;;;;0.41;98.83;98781.22;5108097;28;20020;-64
2024/01/14 00:15:49;;;;;;;0.75;0.75;;;;;;;0.35;99.00;98774.34;5106606;28;20032;-64
2024/01/14 00:18:15;;;;;;;6.30;1.40;;;;;;;0.40;99.27;98776.09;5107969;28;20071;-65
2024/01/14 00:20:40;;;;;;;0.50;0.50;;;;;;;0.29;99.19;98763.28;5108033;28;20016;-64
2024/01/14 00:23:05;;;;;;;0.70;0.70;;;;;;;0.31;99.30;98761.56;5107944;28;20022;-64
2024/01/14 00:25:31;;;;;;;1.17;1.15;;;;;;;0.27;98.99;98770.06;5107837;28;20042;-64
2024/01/14 00:27:56;;;;;;;1.02;1.02;;;;;;;0.35;99.07;98771.81;5108051;28;20030;-64
2024/01/14 00:30:22;;;;;;;3.90;2.67;;;;;;;0.38;99.17;98773.53;5105710;28;20380;-65
2024/01/14 00:32:47;;;;;;;0.85;0.85;;;;;;;0.43;99.45;98774.41;5107873;28;20024;-65
2024/01/14 00:35:13;;;;;;;0.50;0.50;;;;;;;0.52;99.66;98780.41;5106399;28;20020;-63
2024/01/14 00:37:38;;;;;;;2.55;1.15;;;;;;;0.54;99.89;98768.53;5107623;28;20039;-65
2024/01/14 00:40:08;;;;;;;1.80;1.23;;;;;;;0.54;100.00;98764.28;5107780;28;20383;-64
2024/01/14 00:42:34;;;;;;;0.60;0.45;;;;;;;0.62;99.65;98782.19;5107465;28;20027;-64
2024/01/14 00:44:59;;;;;;;0.43;0.43;;;;;;;0.55;99.58;98770.22;5107663;28;20024;-64
2024/01/14 00:47:24;;;;;;;0.63;0.63;;;;;;;0.53;99.35;98766.81;5106275;28;20457;-64
2024/01/14 00:49:50;;;;;;;0.50;0.50;;;;;;;0.53;99.22;98756.59;5107623;28;20027;-64
2024/01/14 00:52:15;;;;;;;0.50;0.50;;;;;;;0.52;99.11;98748.09;5107484;28;20380;-64
2024/01/14 00:54:40;;;;;;;1.40;1.10;;;;;;;0.49;99.20;98750.63;5107471;28;20028;-64
2024/01/14 00:57:07;;;;;;;4.55;2.95;;;;;;;0.52;99.16;98750.63;5107297;28;20016;-64
2024/01/14 00:59:33;;;;;;;0.55;0.55;;;;;;;0.49;99.25;98731.06;5107151;28;20052;-64
2024/01/14 01:01:58;;;;;;;0.50;0.50;;;;;;;0.64;99.20;98739.63;5107350;28;20034;-63
2024/01/14 01:04:24;;;;;;;0.60;0.60;;;;;;;0.65;99.42;98740.47;5107274;28;20027;-63
2024/01/14 01:06:49;;;;;;;0.50;0.50;;;;;;;0.70;99.59;98742.19;5107246;28;20020;-65
2024/01/14 01:09:15;;;;;;;0.95;0.95;;;;;;;0.80;99.63;98734.59;5107292;28;20054;-64
2024/01/14 01:11:40;;;;;;;0.50;0.50;;;;;;;0.79;99.67;98738.84;5106895;28;20508;-64
2024/01/14 01:14:06;;;;;;;1.55;1.45;;;;;;;0.78;99.19;98733.72;5107122;28;20024;-64
2024/01/14 01:16:31;;;;;;;0.75;0.75;;;;;;;0.91;98.88;98743.13;5106983;28;20032;-64
2024/01/14 01:18:56;;;;;;;0.80;0.70;;;;;;;0.84;98.85;98742.28;5105753;28;20044;-64
2024/01/14 01:21:22;;;;;;;0.50;0.50;;;;;;;0.81;98.78;98731.19;5106954;28;20312;-64
2024/01/14 01:23:48;;;;;;;0.80;0.80;;;;;;;0.83;98.22;98749.94;5105518;28;20028;-64
2024/01/14 01:26:14;;;;;;;0.50;0.50;;;;;;;0.78;98.11;98738.84;5105393;28;20473;-65
2024/01/14 01:28:39;;;;;;;0.50;0.50;;;;;;;0.78;97.98;98743.94;5106784;28;20031;-64
2024/01/14 01:31:05;;;;;;;2.05;1.42;;;;;;;0.78;98.28;98746.50;5106770;28;20020;-64
2024/01/14 01:33:30;;;;;;;0.50;0.50;;;;;;;0.80;98.49;98744.81;5106841;28;20084;-65
2024/01/14 01:35:55;;;;;;;8.18;1.58;;;;;;;0.79;98.16;98740.53;5106636;28;20028;-63
2024/01/14 01:38:21;;;;;;;2.40;2.10;;;;;;;0.82;98.19;98740.56;5106435;28;20030;-64
2024/01/14 01:40:47;;;;;;;10.15;0.75;;;;;;;0.87;98.20;98741.44;5105132;28;20024;-64
2024/01/14 01:43:13;;;;;;;1.38;1.13;;;;;;;0.89;98.24;98744.84;5106414;28;20480;-64
2024/01/14 01:45:38;;;;;;;3.83;0.90;;;;;;;0.96;98.19;98756.81;5105160;28;20069;-64
2024/01/14 01:48:04;;;;;;;0.50;0.50;;;;;;;1.01;98.59;98735.53;5106229;28;20039;-65
2024/01/14 01:50:32;;;;;;;0.40;0.40;;;;;;;1.03;98.48;98746.59;5106409;28;20023;-64
2024/01/14 01:52:58;;;;;;;1.67;1.33;;;;;;;1.10;98.12;98749.19;5106554;28;20535;-65
2024/01/14 01:55:23;;;;;;;0.80;0.80;;;;;;;1.08;98.27;98743.22;5106224;28;20031;-65
2024/01/14 01:57:49;;;;;;;2.92;0.73;;;;;;;1.09;97.72;98741.50;5106078;28;20027;-65
2024/01/14 02:00:14;;;;;;;0.47;0.47;;;;;;;1.10;98.41;98727.91;5106292;28;20575;-65
2024/01/14 02:02:44;;;;;;;0.50;0.50;;;;;;;1.10;98.07;98733.00;5106314;28;20088;-65
2024/01/14 02:05:10;;;;;;;0.50;0.50;;;;;;;1.15;98.23;98743.25;5104886;28;20020;-65
2024/01/14 02:07:36;;;;;;;0.50;0.50;;;;;;;1.13;98.45;98733.00;5106231;28;20043;-65
2024/01/14 02:10:01;;;;;;;0.50;0.50;;;;;;;1.06;98.74;98731.28;5106212;28;20088;-64
2024/01/14 02:12:26;;;;;;;0.50;0.50;;;;;;;1.08;98.75;98725.34;5106066;28;20051;-65
2024/01/14 02:14:52;;;;;;;6.25;1.70;;;;;;;1.03;98.57;98742.34;5106158;28;20028;-65
2024/01/14 02:17:17;;;;;;;1.58;1.48;;;;;;;1.01;98.59;98728.69;5106040;28;20460;-64
2024/01/14 02:19:43;;;;;;;0.40;0.40;;;;;;;1.07;98.75;98728.72;5106078;28;20028;-65
2024/01/14 02:22:12;;;;;;;0.50;0.50;;;;;;;1.07;98.77;98718.50;5106014;28;20415;-65
2024/01/14 02:24:38;;;;;;;0.45;0.45;;;;;;;1.11;99.18;98721.94;5106194;28;20050;-66
2024/01/14 02:27:04;;;;;;;0.98;0.70;;;;;;;1.14;99.52;98727.03;5105966;28;20247;-66
2024/01/14 02:29:30;;;;;;;0.50;0.50;;;;;;;1.17;99.11;98719.38;5105950;28;20027;-65
2024/01/14 02:31:56;;;;;;;0.55;0.55;;;;;;;1.20;98.70;98715.97;5106126;28;20100;-64
2024/01/14 02:34:21;;;;;;;0.77;0.77;;;;;;;1.30;99.19;98721.97;5105882;28;20436;-66
2024/01/14 02:36:47;;;;;;;0.40;0.40;;;;;;;1.31;99.62;98718.56;5104395;28;20023;-66
2024/01/14 02:39:12;;;;;;;0.50;0.50;;;;;;;1.30;99.40;98717.72;5105963;28;20058;-65
2024/01/14 02:41:37;;;;;;;0.50;0.50;;;;;;;1.35;99.09;98717.72;5105791;28;20048;-65
2024/01/14 02:44:03;;;;;;;0.40;0.40;;;;;;;1.41;99.22;98725.41;5104600;28;20016;-65
2024/01/14 02:46:29;;;;;;;5.68;1.42;;;;;;;1.39;99.18;98721.97;5104383;28;20083;-66
2024/01/14 02:48:55;;;;;;;0.50;0.50;;;;;;;1.38;98.69;98711.75;5105757;28;20056;-65
2024/01/14 02:51:21;;;;;;;0.50;0.50;;;;;;;1.39;98.03;98703.25;5105970;28;20069;-65
2024/01/14 02:53:46;;;;;;;0.55;0.55;;;;;;;1.48;98.45;98713.47;5106553;28;20070;-65
2024/01/14 02:56:12;;;;;;;0.50;0.50;;;;;;;1.48;98.79;98719.47;5109473;28;20020;-65
2024/01/14 02:58:38;;;;;;;0.40;0.40;;;;;;;1.50;99.37;98710.94;5107978;28;20040;-66
2024/01/14 03:01:03;;;;;;;0.90;0.90;;;;;;;1.40;99.33;98698.13;5108350;28;20031;-67
2024/01/14 03:03:29;;;;;;;0.65;0.65;;;;;;;1.35;98.72;98697.25;5108206;28;20062;-66
2024/01/14 03:05:54;;;;;;;0.50;0.50;;;;;;;1.32;98.70;98702.38;5108239;28;20030;-65
2024/01/14 03:08:20;;;;;;;0.45;0.45;;;;;;;1.16;98.26;98694.69;5109547;28;20487;-65
2024/01/14 03:10:45;;;;;;;0.50;0.50;;;;;;;1.15;98.00;98699.78;5108006;28;20054;-66
2024/01/14 03:13:15;;;;;;;0.50;0.50;;;;;;;1.06;98.09;98687.81;5109540;28;20016;-65
2024/01/14 03:15:43;;;;;;;1.05;1.05;;;;;;;1.03;97.69;98693.78;5109403;28;20073;-66
2024/01/14 03:18:08;;;;;;;0.50;0.50;;;;;;;0.98;97.35;98693.78;5109373;28;20033;-66
2024/01/14 03:20:34;;;;;;;1.88;1.77;;;;;;;0.99;97.60;98690.38;5109249;28;20107;-65
2024/01/14 03:22:59;;;;;;;0.50;0.50;;;;;;;0.97;97.35;98683.56;5109251;28;20145;-65
2024/01/14 03:25:25;;;;;;;0.40;0.40;;;;;;;0.99;96.95;98687.81;5109225;28;20050;-65
2024/01/14 03:27:50;;;;;;;0.45;0.45;;;;;;;1.01;97.02;98689.53;5109124;28;20020;-66
2024/01/14 03:30:15;;;;;;;0.50;0.50;;;;;;;0.95;96.43;98677.56;5109066;28;20079;-65
2024/01/14 03:32:41;;;;;;;0.50;0.50;;;;;;;0.94;95.36;98671.59;5109033;28;20020;-66
2024/01/14 03:35:06;;;;;;;9.95;1.70;;;;;;;0.97;95.77;98671.63;5107657;28;20048;-65
2024/01/14 03:37:32;;;;;;;0.40;0.40;;;;;;;0.98;96.69;98673.34;5108867;28;20080;-65
2024/01/14 03:39:57;;;;;;;0.47;0.47;;;;;;;0.98;95.67;98675.91;5108934;28;20020;-66
2024/01/14 03:42:23;;;;;;;0.50;0.50;;;;;;;0.94;96.16;98661.38;5107427;28;20020;-65
2024/01/14 03:44:49;;;;;;;0.52;0.52;;;;;;;0.98;96.46;98675.91;5108860;28;20054;-65
2024/01/14 03:47:15;;;;;;;0.40;0.40;;;;;;;0.93;96.57;98664.78;5108752;28;20045;-65
2024/01/14 03:49:40;;;;;;;0.50;0.50;;;;;;;0.89;95.87;98663.09;5108725;28;20024;-65
2024/01/14 03:52:06;;;;;;;0.50;0.50;;;;;;;0.84;95.09;98659.66;5108620;28;20020;-65
2024/01/14 03:54:31;;;;;;;0.50;0.50;;;;;;;0.87;94.20;98659.66;5108669;28;20020;-65
2024/01/14 03:56:57;;;;;;;0.50;0.50;;;;;;;0.83;94.47;98653.69;5108243;28;20078;-65
2024/01/14 03:59:22;;;;;;;0.60;0.60;;;;;;;0.85;93.54;98651.13;5108419;28;20369;-65
2024/01/14 04:01:47;;;;;;;0.40;0.40;;;;;;;0.86;94.61;98652.88;5108578;28;20046;-65
2024/01/14 04:04:13;;;;;;;7.43;1.95;;;;;;;0.83;95.24;98646.03;5107174;28;20035;-65
2024/01/14 04:06:38;;;;;;;0.50;0.50;;;;;;;0.82;95.02;98651.13;5108231;28;20020;-65
2024/01/14 04:09:04;;;;;;;0.50;0.50;;;;;;;0.83;93.83;98655.41;5108352;28;20020;-65
2024/01/14 04:11:30;;;;;;;0.50;0.50;;;;;;;0.78;93.20;98649.44;5108188;28;20034;-65
2024/01/14 04:13:55;;;;;;;0.50;0.50;;;;;;;0.78;93.33;98634.97;5108313;28;20043;-66
2024/01/14 04:16:21;;;;;;;0.40;0.40;;;;;;;0.82;94.29;98638.34;5108225;28;20020;-67
2024/01/14 04:18:46;;;;;;;0.40;0.40;;;;;;;0.73;93.18;98642.63;5108236;28;20024;-66
2024/01/14 04:21:22;;;;;;;0.50;0.50;;;;;;;0.74;93.02;98641.75;5108020;28;20016;-65
2024/01/14 04:23:47;;;;;;;1.70;1.60;;;;;;;0.73;93.21;98641.75;5108114;28;20031;-64
2024/01/14 04:26:12;;;;;;;0.43;0.43;;;;;;;0.74;92.72;98646.88;5107949;28;20052;-65
2024/01/14 04:28:38;;;;;;;0.50;0.50;;;;;;;0.73;92.28;98646.88;5107936;28;20111;-65
2024/01/14 04:31:03;;;;;;;0.50;0.50;;;;;;;0.69;93.53;98646.00;5107873;28;20110;-65
2024/01/14 04:33:29;;;;;;;0.40;0.40;;;;;;;0.71;94.02;98659.63;5107868;28;20031;-65
2024/01/14 04:35:54;;;;;;;0.50;0.50;;;;;;;0.71;94.11;98644.31;5106427;28;20487;-65
2024/01/14 04:38:19;;;;;;;0.50;0.50;;;;;;;0.68;94.25;98651.97;5107816;28;20020;-65
2024/01/14 04:40:45;;;;;;;0.50;0.50;;;;;;;0.67;93.36;98647.69;5107513;28;20054;-64
2024/01/14 04:43:11;;;;;;;0.40;0.40;;;;;;;0.64;93.47;98645.13;5107760;28;20027;-65
2024/01/14 04:45:37;;;;;;;0.50;0.50;;;;;;;0.72;94.62;98640.88;5107653;28;20024;-65
2024/01/14 04:48:03;;;;;;;0.50;0.50;;;;;;;0.72;95.33;98646.00;5107465;28;20023;-65
2024/01/14 04:50:28;;;;;;;0.50;0.50;;;;;;;0.68;95.95;98635.78;5107449;28;20024;-65
2024/01/14 04:52:54;;;;;;;0.47;0.47;;;;;;;0.65;95.31;98636.63;5107413;28;20031;-66
2024/01/14 04:55:19;;;;;;;0.40;0.40;;;;;;;0.63;94.77;98630.66;5107505;28;20058;-65
2024/01/14 04:57:44;;;;;;;0.50;0.50;;;;;;;0.68;94.58;98628.97;5107020;28;20031;-65
2024/01/14 05:00:12;;;;;;;0.50;0.50;;;;;;;0.73;94.85;98637.50;5107398;28;20043;-65
2024/01/14 05:02:37;;;;;;;0.55;0.55;;;;;;;0.71;95.43;98628.13;5107293;28;20019;-66
2024/01/14 05:05:03;;;;;;;0.50;0.50;;;;;;;0.72;95.66;98635.78;5107202;28;20123;-66
2024/01/14 05:07:29;;;;;;;0.70;0.70;;;;;;;0.63;95.58;98625.53;5107380;28;20079;-66
2024/01/14 05:09:54;;;;;;;0.80;0.80;;;;;;;0.70;95.65;98637.47;5105726;28;20019;-65
2024/01/14 05:12:20;;;;;;;0.50;0.50;;;;;;;0.63;94.86;98628.09;5107009;28;20045;-65
2024/01/14 05:14:45;;;;;;;0.40;0.40;;;;;;;0.64;95.29;98624.69;5107035;28;20027;-65
2024/01/14 05:17:10;;;;;;;0.50;0.50;;;;;;;0.63;95.90;98620.44;5106392;28;20024;-66
2024/01/14 05:19:40;;;;;;;0.40;0.40;;;;;;;0.71;95.72;98635.78;5107046;28;20364;-65
2024/01/14 05:22:05;;;;;;;0.45;0.45;;;;;;;0.71;96.17;98634.09;5106928;28;20035;-65
2024/01/14 05:24:31;;;;;;;2.10;0.93;;;;;;;0.70;96.01;98629.81;5106943;28;20024;-66
2024/01/14 05:26:56;;;;;;;0.50;0.50;;;;;;;0.68;95.74;98625.56;5105410;28;20024;-65
2024/01/14 05:29:21;;;;;;;0.50;0.50;;;;;;;0.68;96.10;98623.00;5106827;28;20037;-66
2024/01/14 05:31:46;;;;;;;0.50;0.50;;;;;;;0.68;96.19;98620.44;5106700;28;20055;-66
2024/01/14 05:34:12;;;;;;;0.40;0.40;;;;;;;0.66;96.17;98619.56;5106787;28;20050;-66
2024/01/14 05:36:37;;;;;;;0.50;0.50;;;;;;;0.64;96.31;98628.97;5106541;28;20027;-67
2024/01/14 05:39:04;;;;;;;0.50;0.50;;;;;;;0.68;95.66;98626.41;5105558;28;20027;-66
2024/01/14 05:41:30;;;;;;;0.50;0.50;;;;;;;0.63;95.58;98615.31;5105029;28;20474;-65
2024/01/14 05:43:56;;;;;;;0.50;0.50;;;;;;;0.69;96.09;98611.91;5106553;28;20110;-66
2024/01/14 05:46:21;;;;;;;0.63;0.63;;;;;;;0.62;95.43;98623.84;5106465;28;20020;-66
2024/01/14 05:48:46;;;;;;;0.45;0.45;;;;;;;0.69;95.32;98625.56;5106516;28;20046;-65
2024/01/14 05:51:12;;;;;;;0.52;0.52;;;;;;;0.69;95.67;98617.91;5105130;28;20106;-65
2024/01/14 05:53:37;;;;;;;0.77;0.77;;;;;;;0.69;95.55;98617.91;5106528;28;20024;-67
2024/01/14 05:56:03;;;;;;;0.43;0.43;;;;;;;0.73;95.94;98631.53;5106238;28;20035;-65
2024/01/14 05:58:29;;;;;;;0.50;0.50;;;;;;;0.66;95.83;98612.78;5104812;28;20051;-66
2024/01/14 06:00:55;;;;;;;0.43;0.43;;;;;;;0.65;95.94;98608.53;5106252;28;20084;-66
2024/01/14 06:03:20;;;;;;;0.82;0.77;;;;;;;0.67;96.03;98619.59;5106157;28;20087;-66
2024/01/14 06:05:45;;;;;;;0.40;0.40;;;;;;;0.68;96.42;98618.75;5106433;28;20032;-66
2024/01/14 06:08:11;;;;;;;0.40;0.40;;;;;;;0.66;96.00;98605.13;5106215;28;20016;-66
2024/01/14 06:10:36;;;;;;;0.50;0.50;;;;;;;0.72;96.23;98611.94;5106153;28;20035;-66
2024/01/14 06:13:02;;;;;;;0.50;0.50;;;;;;;0.69;96.46;98607.69;5106042;28;20030;-66
2024/01/14 06:15:27;;;;;;;0.40;0.40;;;;;;;0.73;96.64;98611.09;5106138;28;20020;-67
2024/01/14 06:17:53;;;;;;;0.40;0.40;;;;;;;0.73;96.53;98601.75;5105934;28;20024;-66
2024/01/14 06:20:18;;;;;;;0.50;0.50;;;;;;;0.76;96.39;98605.13;5106074;28;20024;-67
2024/01/14 06:22:43;;;;;;;0.60;0.60;;;;;;;0.78;96.52;98601.75;5106062;28;20031;-66
2024/01/14 06:25:09;;;;;;;0.40;0.40;;;;;;;0.73;96.53;98600.88;5105998;28;20031;-66
2024/01/14 06:27:34;;;;;;;0.50;0.50;;;;;;;0.65;96.71;98577.88;5104652;28;20031;-67
2024/01/14 06:30:01;;;;;;;11.10;1.10;;;;;;;0.82;96.63;98605.16;5109045;28;20043;-67
2024/01/14 06:32:26;;;;;;;0.50;0.50;;;;;;;0.83;96.73;98605.16;5110149;28;20081;-67
2024/01/14 06:34:51;;;;;;;0.40;0.40;;;;;;;0.85;96.81;98600.91;5110241;28;20105;-67
2024/01/14 06:37:17;;;;;;;0.40;0.40;;;;;;;0.88;96.98;98596.66;5108813;28;20030;-67
2024/01/14 06:39:42;;;;;;;0.50;0.50;;;;;;;0.86;96.71;98596.66;5108755;28;20063;-67
2024/01/14 06:42:07;;;;;;;0.45;0.45;;;;;;;0.83;96.74;98586.44;5108656;28;20460;-67
2024/01/14 06:44:33;;;;;;;0.40;0.40;;;;;;;0.87;96.92;98580.47;5110146;28;20024;-66
2024/01/14 06:46:58;;;;;;;0.50;0.50;;;;;;;0.93;96.91;98582.16;5109842;28;20083;-66
2024/01/14 06:49:23;;;;;;;0.50;0.50;;;;;;;0.91;96.78;98582.16;5109870;28;20028;-66
2024/01/14 06:51:49;;;;;;;0.40;0.40;;;;;;;0.93;96.79;98583.03;5109817;28;20032;-66
2024/01/14 06:54:14;;;;;;;0.50;0.50;;;;;;;0.94;96.63;98583.88;5109864;28;20372;-67
2024/01/14 06:56:47;;;;;;;0.50;0.50;;;;;;;0.98;96.98;98593.25;5109519;28;20027;-66
2024/01/14 06:59:23;;;;;;;0.50;0.50;;;;;;;0.96;96.95;98584.72;5109467;28;20044;-66
2024/01/14 07:01:49;;;;;;;0.50;0.50;;;;;;;1.01;96.79;98598.38;5109783;28;20076;-66
2024/01/14 07:04:14;;;;;;;0.50;0.50;;;;;;;0.95;96.82;98591.56;5108524;28;20503;-66
2024/01/14 07:06:40;;;;;;;0.50;0.50;;;;;;;0.95;96.59;98594.13;5109311;28;20472;-67
2024/01/14 07:09:08;;;;;;;0.50;0.50;;;;;;;0.96;96.64;98593.25;5109517;28;20036;-67
2024/01/14 07:11:34;;;;;;;0.45;0.45;;;;;;;0.98;96.78;98595.81;5109207;28;20024;-67
2024/01/14 07:14:00;;;;;;;0.40;0.40;;;;;;;0.98;96.76;98594.13;5109479;28;20028;-66
2024/01/14 07:16:25;;;;;;;0.60;0.60;;;;;;;0.95;96.76;98583.88;5109363;28;20061;-67
2024/01/14 07:18:50;;;;;;;0.50;0.50;;;;;;;0.97;96.83;98583.88;5109376;28;20061;-66
2024/01/14 07:21:16;;;;;;;0.43;0.43;;;;;;;0.95;96.99;98577.91;5109336;28;20016;-67
2024/01/14 07:23:41;;;;;;;0.43;0.43;;;;;;;0.95;96.84;98570.25;5109377;28;20036;-67
2024/01/14 07:26:19;;;;;;;0.40;0.40;;;;;;;0.95;96.88;98563.44;5109172;28;20028;-67
2024/01/14 07:28:44;;;;;;;3.80;2.72;;;;;;;0.98;97.00;98568.56;5109280;28;20118;-67
2024/01/14 07:31:10;;;;;;;0.50;0.50;;;;;;;1.01;97.03;98559.19;5109022;28;20023;-66
2024/01/14 07:33:36;;;;;;;0.50;0.50;;;;;;;1.06;97.10;98560.03;5107831;28;20046;-66
2024/01/14 07:36:02;;;;;;;0.60;0.60;;;;;;;1.08;97.15;98555.78;5109190;28;20235;-66
2024/01/14 07:38:27;;;;;;;0.50;0.50;;;;;;;1.10;97.31;98556.66;5108891;28;20020;-66
2024/01/14 07:40:52;;;;;;;0.43;0.43;;;;;;;1.11;97.32;98551.53;5107068;28;20020;-67
2024/01/14 07:43:18;;;;;;;0.60;0.60;;;;;;;1.14;97.16;98544.69;5108859;28;20290;-67
2024/01/14 07:45:43;;;;;;;0.40;0.40;;;;;;;1.20;97.33;98550.66;5108881;28;20038;-67
2024/01/14 07:48:08;;;;;;;0.40;0.40;;;;;;;1.19;97.15;98538.75;5108892;28;20464;-67
2024/01/14 07:50:34;;;;;;;0.40;0.40;;;;;;;1.26;97.30;98546.41;5108608;28;20024;-67
2024/01/14 07:52:59;;;;;;;0.50;0.50;;;;;;;1.26;97.25;98541.28;5108626;28;20024;-67
2024/01/14 07:55:24;;;;;;;0.50;0.50;;;;;;;1.28;97.35;98531.94;5108673;28;20034;-66
2024/01/14 07:57:50;;;;;;;0.40;0.40;;;;;;;1.29;97.29;98529.38;5108200;28;20529;-66
2024/01/14 08:00:16;;;;;;;0.40;0.40;;;;;;;1.29;97.27;98520.84;5108773;28;20032;-67
2024/01/14 08:02:42;;;;;;;0.55;0.55;;;;;;;1.30;97.17;98520.84;5108538;28;20050;-67
2024/01/14 08:05:07;;;;;;;0.40;0.40;;;;;;;1.31;97.07;98517.41;5108512;28;20028;-67
2024/01/14 08:07:32;;;;;;;1.02;1.02;;;;;;;1.32;97.02;98520.84;5107099;28;20020;-67
2024/01/14 08:09:59;;;;;;;0.52;0.52;;;;;;;1.33;97.18;98514.84;5108433;28;20460;-67
2024/01/14 08:12:24;;;;;;;0.50;0.50;;;;;;;1.35;97.36;98511.47;5106923;28;20451;-67
2024/01/14 08:14:49;;;;;;;0.50;0.50;;;;;;;1.33;97.24;98508.06;5108424;28;20460;-67
2024/01/14 08:17:15;;;;;;;6.07;0.82;;;;;;;1.31;97.23;98506.34;5108214;28;20031;-67
2024/01/14 08:19:41;;;;;;;0.50;0.50;;;;;;;1.29;97.45;98508.06;5106714;28;20028;-68
2024/01/14 08:22:06;;;;;;;2.08;0.93;;;;;;;1.29;97.27;98498.69;5108129;28;20024;-67
2024/01/14 08:24:33;;;;;;;0.60;0.60;;;;;;;1.34;97.20;98507.19;5108254;28;20079;-67
2024/01/14 08:26:59;;;;;;;0.70;0.70;;;;;;;1.35;96.98;98514.03;5107786;28;20079;-67
2024/01/14 08:29:24;;;;;;;0.50;0.50;;;;;;;1.28;96.42;98508.91;5108059;28;20024;-66
2024/01/14 08:31:49;;;;;;;2.05;1.67;;;;;;;1.16;95.65;98509.78;5107912;28;20044;-66
2024/01/14 08:34:15;;;;;;;0.40;0.40;;;;;;;1.08;94.45;98512.34;5108059;28;20020;-67
2024/01/14 08:36:40;;;;;;;0.50;0.50;;;;;;;1.01;92.52;98513.19;5107845;28;20032;-66
2024/01/14 08:39:05;;;;;;;3.97;0.68;;;;;;;0.90;91.28;98511.47;5107730;28;20032;-66
2024/01/14 08:41:31;;;;;;;0.50;0.50;;;;;;;0.82;91.39;98508.06;5106386;28;20038;-67
2024/01/14 08:44:37;;;;;;;0.50;0.50;;;;;;;0.72;90.42;98508.06;5107786;28;20020;-67
2024/01/14 08:47:02;;;;;;;0.40;0.40;;;;;;;0.64;89.48;98504.63;5107658;28;20023;-66
2024/01/14 08:49:29;;;;;;;0.40;0.40;;;;;;;0.64;89.29;98494.41;5107716;28;20048;-67
2024/01/14 08:51:56;;;;;;;0.50;0.50;;;;;;;0.68;90.62;98490.19;5106632;28;20049;-67
2024/01/14 08:54:21;;;;;;;0.50;0.50;;;;;;;0.73;90.13;98493.59;5107629;28;20030;-67
2024/01/14 08:56:46;;;;;;;0.40;0.40;;;;;;;0.77;89.64;98486.78;5107300;28;20028;-66
2024/01/14 08:59:12;;;;;;;0.50;0.50;;;;;;;0.83;90.54;98490.19;5107239;28;20071;-66
2024/01/14 09:01:37;;;;;;;0.70;0.70;;;;;;;0.85;90.57;98473.16;5107415;28;20024;-67
2024/01/14 09:04:03;;;;;;;1.05;1.05;;;;;;;0.93;89.86;98480.81;5105987;28;20020;-67
2024/01/14 09:06:28;;;;;;;0.50;0.50;;;;;;;1.02;91.25;98469.75;5107336;28;20028;-67
2024/01/14 09:08:53;;;;;;;0.60;0.60;;;;;;;1.03;89.91;98465.47;5107211;28;20024;-68
2024/01/14 09:11:19;;;;;;;0.47;0.47;;;;;;;1.08;89.97;98469.75;5106964;28;20020;-67
2024/01/14 09:13:45;;;;;;;0.52;0.52;;;;;;;1.17;90.69;98473.13;5105304;28;20099;-68
2024/01/14 09:16:11;;;;;;;0.60;0.60;;;;;;;1.23;89.40;98470.59;5105506;28;20023;-68
2024/01/14 09:18:36;;;;;;;0.40;0.40;;;;;;;1.32;90.02;98469.69;5105433;28;20038;-68
2024/01/14 09:21:02;;;;;;;0.77;0.77;;;;;;;1.42;89.30;98453.47;5105403;28;20035;-68
2024/01/14 09:23:29;;;;;;;0.40;0.40;;;;;;;1.60;89.68;98457.69;5105638;28;20459;-68
2024/01/14 09:25:55;;;;;;;0.50;0.50;;;;;;;1.89;89.90;98453.31;5106628;28;20043;-68
2024/01/14 09:28:21;;;;;;;0.45;0.45;;;;;;;2.36;91.54;98453.06;5106467;28;20024;-68
2024/01/14 09:30:46;;;;;;;0.40;0.40;;;;;;;2.91;93.08;98456.06;5106742;28;20383;-68
2024/01/14 09:33:15;;;;;;;7.72;0.85;;;;;;;3.31;92.48;98449.69;5105316;28;20114;-68
2024/01/14 09:35:40;;;;;;;0.50;0.50;;;;;;;3.39;89.73;98446.19;5106500;28;20431;-68
2024/01/14 09:38:06;;;;;;;0.50;0.40;;;;;;;3.33;88.56;98441.97;5106690;28;20050;-68
2024/01/14 09:40:33;;;;;;;0.50;0.50;;;;;;;3.27;87.73;98434.34;5106696;28;20052;-67
2024/01/14 09:43:00;;;;;;;1.27;0.93;;;;;;;3.14;87.27;98444.75;5106543;28;20041;-68
2024/01/14 09:45:25;;;;;;;0.40;0.40;;;;;;;3.07;88.78;98437.97;5106499;28;20026;-68
2024/01/14 09:47:50;;;;;;;0.40;0.40;;;;;;;2.97;87.50;98434.66;5106476;28;20052;-68
2024/01/14 09:50:17;;;;;;;0.40;0.40;;;;;;;2.99;87.17;98437.22;5106437;28;20031;-68
2024/01/14 09:52:43;;;;;;;0.40;0.40;;;;;;;3.08;88.04;98431.97;5106451;28;20051;-68
2024/01/14 09:55:10;;;;;;;0.93;0.93;;;;;;;3.15;88.86;98436.19;5106431;28;20384;-68
2024/01/14 09:57:39;;;;;;;0.50;0.50;;;;;;;3.08;90.16;98416.59;5106010;28;20046;-68
2024/01/14 10:00:05;;;;;;;0.45;0.45;;;;;;;3.00;88.42;98420.94;5106115;28;20073;-68
2024/01/14 10:02:34;;;;;;;1.30;1.20;;;;;;;2.94;89.02;98415.00;5104713;28;20404;-69
2024/01/14 10:04:59;;;;;;;0.50;0.50;;;;;;;2.88;88.83;98404.81;5104745;28;20027;-68
2024/01/14 10:07:26;;;;;;;0.50;0.50;;;;;;;2.91;89.34;98399.66;5106138;28;20027;-68
2024/01/14 10:09:52;;;;;;;0.50;0.50;;;;;;;2.84;88.20;98387.78;5106028;28;20024;-68
2024/01/14 10:12:49;;;;;;;4.13;0.60;;;;;;;2.85;88.67;98382.63;5105912;28;20446;-68
2024/01/14 10:15:14;;;;;;;14.15;0.68;;;;;;;2.82;89.08;98381.81;5105936;28;20012;-68
2024/01/14 10:17:39;;;;;;;0.50;0.50;;;;;;;2.72;89.26;98369.09;5106045;28;20024;-68
2024/01/14 10:20:06;;;;;;;1.38;1.33;;;;;;;2.69;89.43;98374.25;5106002;28;20464;-68
2024/01/14 10:22:32;;;;;;;0.40;0.40;;;;;;;2.71;90.25;98379.34;5105916;28;20022;-68
2024/01/14 10:24:58;;;;;;;3.33;1.85;;;;;;;2.59;89.75;98370.03;5105983;28;20083;-68
2024/01/14 10:27:25;;;;;;;0.73;0.70;;;;;;;2.56;90.19;98353.00;5105836;28;20020;-67
2024/01/14 10:29:50;;;;;;;0.65;0.65;;;;;;;2.52;89.85;98343.66;5104499;28;20051;-68
2024/01/14 10:32:18;;;;;;;1.10;0.93;;;;;;;2.49;89.88;98348.81;5105995;28;20020;-67
2024/01/14 10:34:44;;;;;;;3.25;0.88;;;;;;;2.50;90.52;98335.13;5105892;28;20023;-67
2024/01/14 10:37:11;;;;;;;0.50;0.50;;;;;;;2.64;91.40;98335.00;5105683;28;20057;-67
2024/01/14 10:39:37;;;;;;;0.40;0.40;;;;;;;2.70;91.86;98322.13;5106052;28;20103;-67
2024/01/14 10:42:03;;;;;;;1.10;0.98;;;;;;;2.66;90.47;98317.91;5105596;28;20406;-67
2024/01/14 10:44:28;;;;;;;0.55;0.55;;;;;;;2.69;90.96;98312.75;5105891;28;20084;-67
2024/01/14 10:46:56;;;;;;;0.60;0.60;;;;;;;2.61;89.95;98304.28;5105749;28;20020;-67
2024/01/14 10:49:25;;;;;;;0.47;0.47;;;;;;;2.60;89.67;98308.53;5105782;28;20022;-67
2024/01/14 10:52:10;;;;;;;0.63;0.63;;;;;;;2.57;90.48;98303.44;5104324;28;20365;-68
2024/01/14 10:54:47;;;;;;;1.13;1.13;;;;;;;2.52;89.97;98299.25;5104497;28;20111;-67
2024/01/14 10:57:29;;;;;;;0.65;0.65;;;;;;;2.36;89.92;98309.66;5104121;28;20091;-68
2024/01/14 10:59:57;;;;;;;0.75;0.75;;;;;;;2.33;90.15;98304.56;5105494;28;20040;-67
2024/01/14 11:02:25;;;;;;;0.50;0.50;;;;;;;2.26;90.13;98300.31;5105509;28;20147;-68
2024/01/14 11:04:51;;;;;;;0.50;0.50;;;;;;;2.17;89.80;98296.97;5105526;28;20153;-68
2024/01/14 11:07:16;;;;;;;4.13;1.50;;;;;;;2.17;90.22;98299.53;5105617;28;20047;-68
2024/01/14 11:09:43;;;;;;;5.15;1.95;;;;;;;2.14;89.74;98293.63;5105697;28;20058;-68
2024/01/14 11:12:22;;;;;;;0.50;0.50;;;;;;;2.10;91.25;98267.19;5105401;28;20096;-67
2024/01/14 11:14:56;;;;;;;0.60;0.60;;;;;;;2.07;90.58;98272.34;5106348;28;20481;-66
2024/01/14 11:17:27;;;;;;;2.15;1.30;;;;;;;2.10;90.56;98270.59;5109179;28;20066;-68
2024/01/14 11:19:54;;;;;;;0.60;0.60;;;;;;;2.06;90.95;98255.28;5109338;28;20028;-68
2024/01/14 11:22:22;;;;;;;0.50;0.50;;;;;;;2.04;91.02;98257.00;5109282;28;20043;-68
2024/01/14 11:24:47;;;;;;;1.35;0.77;;;;;;;1.94;90.95;98240.88;5108062;28;20050;-68
2024/01/14 11:27:14;;;;;;;0.50;0.50;;;;;;;1.92;91.74;98237.47;5109109;28;20024;-68
2024/01/14 11:29:40;;;;;;;1.27;1.27;;;;;;;1.91;90.86;98236.63;5109145;28;20028;-68
2024/01/14 11:32:13;;;;;;;1.33;1.30;;;;;;;1.87;91.07;98231.56;5109048;28;20016;-67
2024/01/14 11:34:48;;;;;;;0.50;0.50;;;;;;;1.88;90.90;98220.44;5107659;28;20026;-68
2024/01/14 11:37:29;;;;;;;0.40;0.40;;;;;;;1.92;91.57;98207.59;5108749;28;20020;-68